createdAt,value
2023-05-01T00:02:25.226Z,8.90
2023-05-01T00:04:53.096Z,8.90
2023-05-01T00:07:21.144Z,9.00
2023-05-01T00:09:48.985Z,8.80
2023-05-01T00:12:18.139Z,8.80
2023-05-01T00:14:45.919Z,8.80
2023-05-01T00:17:14.405Z,8.80
2023-05-01T00:19:42.182Z,8.70
2023-05-01T00:22:09.988Z,8.70
2023-05-01T00:24:37.773Z,8.60
2023-05-01T00:27:05.648Z,8.60
2023-05-01T00:29:34.761Z,8.60
2023-05-01T00:32:02.591Z,8.60
2023-05-01T00:34:30.508Z,8.50
2023-05-01T00:36:58.868Z,8.50
2023-05-01T00:39:26.661Z,8.40
2023-05-01T00:41:54.909Z,8.50
2023-05-01T00:44:22.708Z,8.40
2023-05-01T00:46:51.845Z,8.40
2023-05-01T00:49:19.626Z,8.40
2023-05-01T00:51:48.190Z,8.40
2023-05-01T00:54:15.964Z,8.40
2023-05-01T00:56:43.766Z,8.30
2023-05-01T00:59:11.553Z,8.40
2023-05-01T01:01:39.447Z,8.50
2023-05-01T01:04:09.034Z,8.20
2023-05-01T01:06:43.820Z,8.20
2023-05-01T01:09:18.991Z,8.10
2023-05-01T01:11:54.277Z,8.10
2023-05-01T01:14:26.586Z,8.00
2023-05-01T01:16:56.054Z,8.00
2023-05-01T01:20:03.976Z,8.20
2023-05-01T01:22:33.372Z,8.10
2023-05-01T01:25:17.105Z,8.00
2023-05-01T01:27:59.771Z,7.90
2023-05-01T01:30:36.383Z,7.90
2023-05-01T01:33:36.154Z,7.80
2023-05-01T01:36:08.030Z,7.70
2023-05-01T01:38:38.637Z,7.70
2023-05-01T01:41:10.205Z,7.70
2023-05-01T01:43:40.058Z,7.80
2023-05-01T01:46:09.063Z,7.60
2023-05-01T01:48:38.582Z,7.60
2023-05-01T01:51:10.330Z,7.70
2023-05-01T01:53:38.428Z,7.60
2023-05-01T01:56:07.172Z,7.60
2023-05-01T01:58:35.884Z,7.60
2023-05-01T02:01:03.684Z,7.50
2023-05-01T02:03:31.807Z,7.50
2023-05-01T02:05:59.791Z,7.40
2023-05-01T02:08:29.551Z,7.40
2023-05-01T02:11:01.812Z,7.40
2023-05-01T02:13:30.287Z,7.50
2023-05-01T02:15:58.605Z,7.60
2023-05-01T02:18:26.582Z,7.50
2023-05-01T02:20:54.497Z,7.30
2023-05-01T02:23:22.870Z,7.30
2023-05-01T02:25:52.190Z,7.30
2023-05-01T02:28:22.475Z,7.30
2023-05-01T02:30:50.253Z,7.40
2023-05-01T02:33:18.039Z,7.20
2023-05-01T02:35:47.281Z,7.20
2023-05-01T02:38:16.198Z,7.10
2023-05-01T02:40:45.439Z,7.20
2023-05-01T02:43:16.309Z,7.20
2023-05-01T02:45:44.269Z,7.20
2023-05-01T02:48:13.300Z,7.30
2023-05-01T02:50:42.089Z,7.60
2023-05-01T02:53:10.143Z,7.40
2023-05-01T02:55:37.920Z,7.30
2023-05-01T02:58:05.721Z,7.10
2023-05-01T03:00:35.214Z,7.10
2023-05-01T03:03:03.128Z,7.20
2023-05-01T03:05:30.952Z,7.20
2023-05-01T03:07:58.741Z,7.10
2023-05-01T03:10:26.524Z,7.20
2023-05-01T03:12:54.305Z,7.20
2023-05-01T03:15:22.176Z,7.20
2023-05-01T03:17:51.778Z,7.00
2023-05-01T03:20:19.574Z,7.00
2023-05-01T03:22:47.332Z,6.90
2023-05-01T03:25:15.368Z,6.90
2023-05-01T03:27:43.126Z,7.00
2023-05-01T03:30:11.638Z,7.00
2023-05-01T03:32:39.431Z,7.00
2023-05-01T03:35:09.436Z,7.00
2023-05-01T03:37:37.383Z,7.00
2023-05-01T03:40:05.802Z,7.10
2023-05-01T03:42:33.591Z,7.10
2023-05-01T03:45:01.351Z,7.10
2023-05-01T03:47:29.751Z,7.10
2023-05-01T03:49:57.779Z,7.10
2023-05-01T03:52:27.651Z,7.10
2023-05-01T03:54:55.421Z,7.10
2023-05-01T03:57:23.749Z,7.20
2023-05-01T03:59:51.547Z,7.10
2023-05-01T04:02:19.354Z,7.10
2023-05-01T04:04:47.245Z,7.10
2023-05-01T04:07:15.192Z,7.10
2023-05-01T04:09:44.590Z,7.20
2023-05-01T04:12:12.335Z,7.30
2023-05-01T04:14:40.126Z,7.40
2023-05-01T04:17:07.970Z,7.50
2023-05-01T04:19:35.774Z,7.20
2023-05-01T04:22:03.768Z,7.00
2023-05-01T04:24:31.564Z,6.90
2023-05-01T04:27:00.720Z,7.00
2023-05-01T04:29:28.496Z,7.00
2023-05-01T04:31:56.342Z,7.00
2023-05-01T04:34:24.412Z,7.00
2023-05-01T04:36:52.519Z,7.00
2023-05-01T04:39:20.409Z,6.90
2023-05-01T04:41:48.199Z,6.80
2023-05-01T04:44:17.379Z,6.80
2023-05-01T04:46:45.449Z,6.80
2023-05-01T04:49:13.270Z,6.90
2023-05-01T04:51:41.113Z,6.90
2023-05-01T04:54:08.908Z,6.90
2023-05-01T04:56:36.669Z,7.00
2023-05-01T04:59:04.451Z,7.00
2023-05-01T05:01:33.635Z,7.00
2023-05-01T05:04:01.543Z,7.00
2023-05-01T05:06:29.508Z,7.10
2023-05-01T05:08:57.842Z,7.20
2023-05-01T05:11:26.415Z,7.20
2023-05-01T05:13:54.223Z,7.00
2023-05-01T05:16:22.049Z,6.90
2023-05-01T05:18:51.194Z,6.80
2023-05-01T05:21:19.130Z,6.80
2023-05-01T05:23:46.924Z,7.00
2023-05-01T05:26:15.024Z,7.30
2023-05-01T05:28:42.828Z,8.00
2023-05-01T05:31:10.676Z,7.40
2023-05-01T05:33:38.668Z,7.30
2023-05-01T05:36:07.970Z,7.30
2023-05-01T05:38:35.753Z,7.30
2023-05-01T05:41:03.572Z,7.40
2023-05-01T05:43:32.304Z,7.20
2023-05-01T05:46:00.530Z,7.30
2023-05-01T05:48:28.415Z,7.30
2023-05-01T05:50:56.645Z,7.50
2023-05-01T05:53:26.244Z,7.80
2023-05-01T05:55:54.319Z,7.80
2023-05-01T05:58:23.278Z,7.90
2023-05-01T06:00:52.973Z,7.80
2023-05-01T06:03:21.181Z,7.80
2023-05-01T06:05:49.309Z,7.90
2023-05-01T06:08:17.193Z,7.90
2023-05-01T06:10:46.381Z,8.00
2023-05-01T06:13:15.071Z,8.10
2023-05-01T06:15:43.815Z,8.20
2023-05-01T06:18:11.978Z,8.30
2023-05-01T06:20:39.927Z,8.40
2023-05-01T06:23:08.514Z,8.40
2023-05-01T06:25:36.512Z,8.40
2023-05-01T06:28:06.007Z,8.50
2023-05-01T06:30:33.794Z,8.50
2023-05-01T06:33:01.616Z,8.60
2023-05-01T06:35:29.455Z,8.70
2023-05-01T06:37:57.235Z,8.80
2023-05-01T06:40:25.036Z,8.80
2023-05-01T06:42:52.833Z,8.90
2023-05-01T06:45:22.165Z,9.30
2023-05-01T06:47:50.013Z,9.10
2023-05-01T06:50:18.095Z,9.30
2023-05-01T06:52:46.049Z,9.40
2023-05-01T06:55:13.839Z,9.40
2023-05-01T06:57:42.841Z,9.40
2023-05-01T07:00:11.969Z,9.40
2023-05-01T07:02:41.608Z,9.50
2023-05-01T07:05:09.670Z,9.50
2023-05-01T07:07:38.927Z,9.50
2023-05-01T07:10:10.543Z,10.40
2023-05-01T07:12:38.325Z,10.50
2023-05-01T07:15:07.218Z,10.40
2023-05-01T07:17:35.438Z,10.30
2023-05-01T07:20:05.182Z,10.20
2023-05-01T07:22:32.974Z,10.00
2023-05-01T07:25:03.117Z,10.10
2023-05-01T07:27:30.973Z,10.10
2023-05-01T07:29:59.081Z,10.20
2023-05-01T07:32:27.071Z,10.20
2023-05-01T07:34:54.875Z,10.20
2023-05-01T07:37:24.051Z,10.20
2023-05-01T07:39:51.901Z,10.30
2023-05-01T07:42:19.666Z,10.30
2023-05-01T07:44:47.639Z,10.50
2023-05-01T07:47:15.622Z,10.50
2023-05-01T07:49:43.463Z,10.50
2023-05-01T07:52:11.287Z,10.50
2023-05-01T07:54:40.441Z,10.40
2023-05-01T07:57:08.221Z,10.50
2023-05-01T07:59:35.989Z,10.60
2023-05-01T08:02:03.919Z,10.60
2023-05-01T08:04:31.980Z,11.10
2023-05-01T08:06:59.775Z,11.30
2023-05-01T08:09:27.581Z,11.10
2023-05-01T08:11:56.749Z,11.00
2023-05-01T08:14:24.593Z,11.00
2023-05-01T08:16:55.383Z,11.00
2023-05-01T08:19:23.429Z,10.90
2023-05-01T08:21:51.260Z,10.90
2023-05-01T08:24:19.083Z,10.90
2023-05-01T08:26:46.905Z,10.80
2023-05-01T08:29:16.286Z,10.80
2023-05-01T08:31:44.188Z,10.80
2023-05-01T08:34:12.039Z,10.90
2023-05-01T08:36:39.824Z,11.10
2023-05-01T08:39:07.677Z,11.10
2023-05-01T08:41:35.712Z,11.10
2023-05-01T08:44:05.505Z,11.10
2023-05-01T08:46:39.937Z,11.10
2023-05-01T08:49:08.711Z,11.20
2023-05-01T08:51:36.495Z,11.10
2023-05-01T08:54:04.481Z,11.30
2023-05-01T08:56:33.515Z,11.30
2023-05-01T08:59:01.876Z,11.20
2023-05-01T09:01:29.717Z,11.20
2023-05-01T09:03:59.181Z,11.30
2023-05-01T09:06:28.715Z,11.40
2023-05-01T09:08:56.780Z,11.50
2023-05-01T09:11:24.604Z,11.30
2023-05-01T09:13:52.419Z,11.20
2023-05-01T09:16:20.422Z,11.30
2023-05-01T09:18:48.246Z,11.30
2023-05-01T09:21:17.475Z,11.40
2023-05-01T09:23:45.269Z,11.80
2023-05-01T09:26:13.063Z,12.10
2023-05-01T09:28:42.604Z,12.10
2023-05-01T09:31:23.582Z,12.20
2023-05-01T09:33:55.359Z,11.80
2023-05-01T09:36:25.272Z,11.80
2023-05-01T09:38:53.171Z,11.80
2023-05-01T09:41:22.372Z,11.90
2023-05-01T09:43:53.324Z,12.00
2023-05-01T09:46:21.198Z,12.10
2023-05-01T09:48:56.398Z,12.10
2023-05-01T09:51:26.852Z,11.90
2023-05-01T09:53:56.015Z,11.90
2023-05-01T09:56:23.873Z,11.70
2023-05-01T09:58:51.971Z,11.80
2023-05-01T10:01:19.858Z,11.70
2023-05-01T10:03:47.759Z,11.80
2023-05-01T10:06:29.673Z,11.80
2023-05-01T10:08:58.039Z,11.80
2023-05-01T10:11:26.960Z,11.90
2023-05-01T10:14:10.531Z,12.10
2023-05-01T10:16:39.240Z,12.20
2023-05-01T10:19:07.691Z,12.20
2023-05-01T10:21:37.073Z,12.20
2023-05-01T10:24:06.362Z,12.30
2023-05-01T10:26:34.582Z,12.20
2023-05-01T10:29:02.528Z,12.40
2023-05-01T10:31:32.982Z,12.50
2023-05-01T10:34:01.716Z,12.40
2023-05-01T10:36:34.200Z,12.70
2023-05-01T10:39:03.955Z,12.90
2023-05-01T10:42:04.462Z,13.00
2023-05-01T10:44:32.249Z,13.00
2023-05-01T10:47:00.108Z,13.10
2023-05-01T10:49:45.113Z,12.90
2023-05-01T10:52:13.213Z,13.10
2023-05-01T10:54:42.326Z,13.20
2023-05-01T10:57:12.644Z,13.30
2023-05-01T11:00:11.687Z,13.10
2023-05-01T11:02:42.807Z,13.30
2023-05-01T11:05:10.968Z,13.40
2023-05-01T11:07:38.833Z,13.50
2023-05-01T11:10:11.834Z,13.20
2023-05-01T11:12:51.052Z,13.10
2023-05-01T11:15:32.304Z,13.10
2023-05-01T11:18:00.531Z,13.00
2023-05-01T11:20:49.299Z,12.90
2023-05-01T11:23:23.756Z,12.90
2023-05-01T11:26:03.604Z,13.00
2023-05-01T11:28:31.964Z,13.10
2023-05-01T11:31:00.008Z,12.90
2023-05-01T11:33:27.782Z,13.00
2023-05-01T11:36:01.864Z,13.00
2023-05-01T11:38:29.753Z,12.80
2023-05-01T11:41:00.231Z,12.70
2023-05-01T11:43:28.053Z,12.60
2023-05-01T11:46:02.079Z,12.80
2023-05-01T11:48:31.181Z,12.90
2023-05-01T11:51:00.968Z,12.90
2023-05-01T11:53:29.988Z,12.90
2023-05-01T11:56:00.000Z,12.70
2023-05-01T11:58:34.850Z,12.70
2023-05-01T12:01:03.333Z,12.60
2023-05-01T12:03:41.866Z,12.60
2023-05-01T12:06:10.971Z,12.70
2023-05-01T12:08:39.551Z,12.80
2023-05-01T12:11:08.941Z,12.70
2023-05-01T12:13:37.019Z,12.80
2023-05-01T12:16:05.844Z,12.90
2023-05-01T12:18:36.736Z,12.80
2023-05-01T12:21:04.666Z,12.90
2023-05-01T12:23:33.300Z,12.90
2023-05-01T12:26:02.951Z,12.70
2023-05-01T12:28:32.242Z,12.70
2023-05-01T12:31:05.258Z,12.70
2023-05-01T12:33:33.395Z,12.70
2023-05-01T12:36:10.580Z,12.70
2023-05-01T12:38:38.702Z,12.70
2023-05-01T12:41:09.436Z,12.70
2023-05-01T12:43:39.136Z,12.70
2023-05-01T12:46:07.638Z,12.90
2023-05-01T12:48:35.446Z,13.00
2023-05-01T12:51:03.267Z,12.90
2023-05-01T12:53:31.197Z,12.90
2023-05-01T12:55:59.485Z,12.80
2023-05-01T12:58:36.253Z,12.80
2023-05-01T13:01:06.249Z,12.70
2023-05-01T13:03:38.303Z,12.80
2023-05-01T13:06:11.017Z,12.50
2023-05-01T13:08:39.703Z,12.60
2023-05-01T13:11:12.832Z,12.40
2023-05-01T13:13:40.670Z,12.50
2023-05-01T13:16:12.536Z,12.40
2023-05-01T13:18:44.575Z,12.30
2023-05-01T13:21:14.564Z,12.30
2023-05-01T13:23:42.526Z,12.30
2023-05-01T13:26:10.682Z,12.40
2023-05-01T13:28:45.035Z,12.40
2023-05-01T13:31:14.939Z,12.50
2023-05-01T13:33:43.214Z,12.40
2023-05-01T13:36:24.346Z,12.50
2023-05-01T13:38:55.836Z,12.50
2023-05-01T13:41:25.522Z,12.50
2023-05-01T13:43:54.611Z,12.30
2023-05-01T13:46:24.708Z,12.20
2023-05-01T13:48:52.665Z,12.20
2023-05-01T13:51:22.072Z,12.30
2023-05-01T13:53:50.272Z,12.20
2023-05-01T13:56:18.062Z,12.10
2023-05-01T13:58:45.927Z,12.20
2023-05-01T14:01:16.110Z,12.20
2023-05-01T14:03:45.933Z,12.10
2023-05-01T14:06:14.248Z,11.90
2023-05-01T14:08:43.160Z,11.80
2023-05-01T14:11:11.594Z,11.90
2023-05-01T14:13:41.339Z,12.00
2023-05-01T14:16:10.914Z,11.90
2023-05-01T14:18:46.022Z,12.00
2023-05-01T14:21:14.456Z,12.10
2023-05-01T14:23:42.969Z,12.10
2023-05-01T14:26:11.265Z,12.10
2023-05-01T14:28:42.453Z,12.10
2023-05-01T14:31:10.273Z,12.00
2023-05-01T14:33:42.391Z,12.10
2023-05-01T14:36:11.613Z,11.90
2023-05-01T14:38:40.260Z,11.90
2023-05-01T14:41:10.052Z,11.80
2023-05-01T14:43:39.012Z,11.80
2023-05-01T14:46:06.947Z,11.70
2023-05-01T14:48:36.292Z,11.80
2023-05-01T14:51:06.456Z,11.70
2023-05-01T14:53:35.848Z,11.60
2023-05-01T14:56:03.627Z,11.60
2023-05-01T14:58:31.433Z,11.60
2023-05-01T15:00:59.201Z,11.60
2023-05-01T15:03:27.188Z,11.60
2023-05-01T15:05:55.218Z,11.70
2023-05-01T15:08:23.182Z,11.60
2023-05-01T15:10:52.856Z,11.70
2023-05-01T15:13:21.378Z,11.70
2023-05-01T15:15:49.625Z,11.60
2023-05-01T15:18:17.694Z,11.50
2023-05-01T15:20:46.315Z,11.60
2023-05-01T15:23:15.083Z,11.60
2023-05-01T15:25:44.370Z,11.60
2023-05-01T15:28:14.088Z,11.60
2023-05-01T15:30:45.007Z,11.70
2023-05-01T15:33:12.850Z,11.70
2023-05-01T15:35:40.754Z,11.70
2023-05-01T15:38:08.510Z,11.70
2023-05-01T15:40:36.394Z,11.70
2023-05-01T15:43:05.538Z,11.70
2023-05-01T15:45:34.853Z,11.80
2023-05-01T15:48:03.138Z,11.80
2023-05-01T15:50:31.101Z,11.70
2023-05-01T15:52:58.930Z,11.70
2023-05-01T15:55:26.740Z,11.60
2023-05-01T15:57:54.497Z,11.60
2023-05-01T16:00:22.734Z,11.60
2023-05-01T16:02:52.173Z,11.60
2023-05-01T16:05:21.512Z,11.60
2023-05-01T16:07:50.798Z,11.60
2023-05-01T16:10:18.760Z,11.60
2023-05-01T16:12:46.956Z,11.70
2023-05-01T16:15:14.770Z,11.70
2023-05-01T16:17:44.408Z,11.70
2023-05-01T16:20:14.893Z,11.70
2023-05-01T16:22:43.417Z,11.60
2023-05-01T16:25:11.909Z,11.70
2023-05-01T16:27:42.247Z,11.60
2023-05-01T16:30:14.345Z,11.70
2023-05-01T16:32:42.458Z,11.60
2023-05-01T16:35:12.994Z,11.60
2023-05-01T16:37:40.849Z,11.60
2023-05-01T16:40:10.216Z,11.50
2023-05-01T16:42:38.783Z,11.50
2023-05-01T16:45:08.830Z,11.40
2023-05-01T16:47:36.880Z,11.40
2023-05-01T16:50:05.439Z,11.30
2023-05-01T16:52:34.688Z,11.40
2023-05-01T16:55:02.807Z,11.30
2023-05-01T16:57:30.622Z,11.40
2023-05-01T16:59:58.797Z,11.30
2023-05-01T17:02:26.839Z,11.30
2023-05-01T17:04:54.651Z,11.30
2023-05-01T17:07:23.728Z,11.20
2023-05-01T17:09:52.861Z,11.40
2023-05-01T17:12:20.648Z,11.70
2023-05-01T17:14:48.435Z,12.00
2023-05-01T17:17:17.536Z,11.70
2023-05-01T17:19:45.352Z,11.30
2023-05-01T17:22:13.995Z,11.30
2023-05-01T17:24:42.186Z,11.40
2023-05-01T17:27:12.199Z,11.20
2023-05-01T17:29:44.320Z,11.20
2023-05-01T17:34:40.152Z,11.20
2023-05-01T17:37:08.586Z,11.20
2023-05-01T17:39:36.372Z,11.20
2023-05-01T17:42:04.359Z,11.00
2023-05-01T17:44:33.749Z,10.90
2023-05-01T17:47:01.827Z,11.10
2023-05-01T17:49:29.604Z,11.00
2023-05-01T17:51:57.464Z,11.10
2023-05-01T17:54:25.346Z,10.90
2023-05-01T17:56:53.178Z,10.90
2023-05-01T17:59:20.959Z,10.80
2023-05-01T18:01:50.162Z,10.80
2023-05-01T18:04:18.198Z,10.80
2023-05-01T18:06:46.518Z,10.80
2023-05-01T18:09:14.400Z,10.80
2023-05-01T18:11:42.180Z,10.80
2023-05-01T18:14:09.947Z,10.80
2023-05-01T18:16:37.817Z,10.80
2023-05-01T18:19:06.938Z,10.80
2023-05-01T18:21:35.070Z,10.80
2023-05-01T18:24:03.418Z,10.80
2023-05-01T18:26:32.929Z,10.90
2023-05-01T18:29:05.936Z,10.90
2023-05-01T18:31:35.844Z,10.80
2023-05-01T18:34:04.050Z,10.70
2023-05-01T18:36:33.220Z,10.70
2023-05-01T18:39:01.932Z,10.70
2023-05-01T18:41:30.023Z,10.70
2023-05-01T18:43:59.683Z,10.80
2023-05-01T18:46:27.557Z,10.80
2023-05-01T18:48:55.623Z,10.70
2023-05-01T18:51:23.425Z,10.70
2023-05-01T18:53:52.544Z,10.70
2023-05-01T18:56:20.866Z,10.70
2023-05-01T18:58:48.645Z,10.70
2023-05-01T19:01:16.441Z,10.70
2023-05-01T19:03:44.305Z,10.60
2023-05-01T19:06:12.123Z,10.70
2023-05-01T19:08:39.923Z,10.70
2023-05-01T19:11:09.042Z,10.70
2023-05-01T19:13:36.911Z,10.60
2023-05-01T19:16:04.918Z,10.60
2023-05-01T19:18:33.505Z,10.50
2023-05-01T19:21:01.314Z,10.50
2023-05-01T19:23:30.638Z,10.50
2023-05-01T19:25:58.421Z,10.40
2023-05-01T19:28:27.626Z,10.40
2023-05-01T19:30:55.448Z,10.40
2023-05-01T19:33:23.270Z,10.50
2023-05-01T19:35:51.080Z,10.40
2023-05-01T19:38:18.885Z,10.50
2023-05-01T19:40:46.731Z,10.40
2023-05-01T19:43:14.516Z,10.30
2023-05-01T19:45:43.752Z,10.30
2023-05-01T19:48:11.698Z,10.30
2023-05-01T19:50:39.546Z,10.30
2023-05-01T19:53:07.357Z,10.40
2023-05-01T19:55:35.154Z,10.40
2023-05-01T19:58:04.555Z,10.40
2023-05-01T20:00:32.412Z,10.40
2023-05-01T20:03:01.617Z,10.30
2023-05-01T20:05:31.224Z,10.30
2023-05-01T20:08:00.913Z,10.30
2023-05-01T20:10:28.863Z,10.20
2023-05-01T20:12:56.676Z,10.10
2023-05-01T20:15:24.507Z,10.10
2023-05-01T20:17:52.745Z,10.10
2023-05-01T20:20:21.956Z,10.10
2023-05-01T20:22:52.316Z,10.20
2023-05-01T20:25:20.124Z,10.00
2023-05-01T20:27:47.921Z,10.10
2023-05-01T20:30:15.714Z,10.00
2023-05-01T20:32:44.184Z,10.00
2023-05-01T20:35:12.332Z,10.00
2023-05-01T20:37:41.692Z,10.00
2023-05-01T20:40:11.582Z,10.10
2023-05-01T20:42:39.859Z,10.00
2023-05-01T20:45:09.075Z,10.10
2023-05-01T20:47:36.877Z,10.00
2023-05-01T20:50:05.090Z,10.10
2023-05-01T20:52:32.892Z,10.00
2023-05-01T20:55:02.104Z,9.90
2023-05-01T20:57:30.128Z,9.90
2023-05-01T20:59:58.077Z,9.90
2023-05-01T21:02:26.207Z,9.90
2023-05-01T21:04:54.945Z,10.00
2023-05-01T21:07:22.739Z,10.10
2023-05-01T21:09:50.506Z,10.00
2023-05-01T21:12:19.671Z,10.10
2023-05-01T21:14:47.451Z,10.00
2023-05-01T21:17:15.486Z,9.90
2023-05-01T21:19:44.056Z,9.90
2023-05-01T21:22:16.019Z,9.90
2023-05-01T21:24:44.324Z,9.90
2023-05-01T21:27:12.184Z,9.80
2023-05-01T21:29:41.396Z,9.70
2023-05-01T21:32:09.280Z,9.70
2023-05-01T21:34:37.083Z,9.70
2023-05-01T21:37:04.860Z,9.70
2023-05-01T21:39:32.665Z,9.60
2023-05-01T21:42:02.625Z,9.60
2023-05-01T21:44:30.694Z,9.70
2023-05-01T21:46:59.834Z,9.60
2023-05-01T21:49:27.920Z,9.70
2023-05-01T21:51:59.695Z,9.50
2023-05-01T21:54:28.712Z,9.50
2023-05-01T21:56:59.206Z,9.50
2023-05-01T21:59:28.114Z,9.60
2023-05-01T22:01:55.933Z,9.60
2023-05-01T22:04:25.028Z,9.50
2023-05-01T22:06:52.830Z,9.50
2023-05-01T22:09:20.618Z,9.50
2023-05-01T22:11:48.415Z,9.60
2023-05-01T22:14:16.708Z,9.50
2023-05-01T22:16:44.499Z,9.50
2023-05-01T22:19:12.280Z,9.50
2023-05-01T22:21:41.385Z,9.40
2023-05-01T22:24:09.139Z,9.40
2023-05-01T22:26:37.450Z,9.50
2023-05-01T22:29:05.199Z,9.50
2023-05-01T22:31:33.455Z,9.50
2023-05-01T22:34:01.274Z,9.60
2023-05-01T22:36:29.079Z,9.70
2023-05-01T22:38:58.209Z,9.50
2023-05-01T22:41:25.973Z,9.40
2023-05-01T22:43:53.745Z,9.50
2023-05-01T22:46:21.548Z,9.60
2023-05-01T22:48:49.375Z,9.60
2023-05-01T22:51:17.154Z,9.60
2023-05-01T22:53:45.408Z,9.60
2023-05-01T22:56:14.553Z,9.50
2023-05-01T22:58:42.811Z,9.50
2023-05-01T23:01:10.634Z,9.60
2023-05-01T23:03:39.090Z,9.60
2023-05-01T23:06:07.307Z,9.70
2023-05-01T23:08:35.079Z,9.70
2023-05-01T23:11:03.118Z,9.70
2023-05-01T23:13:32.324Z,9.60
2023-05-01T23:16:00.194Z,9.60
2023-05-01T23:18:31.617Z,9.60
2023-05-01T23:20:59.453Z,9.60
2023-05-01T23:23:29.004Z,9.50
2023-05-01T23:25:56.793Z,9.40
2023-05-01T23:28:25.440Z,9.50
2023-05-01T23:30:56.510Z,9.90
2023-05-01T23:33:25.626Z,9.80
2023-05-01T23:35:53.416Z,9.70
2023-05-01T23:38:21.218Z,9.60
2023-05-01T23:40:49.691Z,9.50
2023-05-01T23:43:17.660Z,9.50
2023-05-01T23:45:45.456Z,9.50
2023-05-01T23:48:14.854Z,9.60
2023-05-01T23:50:42.790Z,9.60
2023-05-01T23:53:10.729Z,9.50
2023-05-01T23:55:39.229Z,9.50
2023-05-01T23:58:07.054Z,9.40
